Time;durP1;ratioP1;P1;durP2;ratioP2;P2;SDS_P1;SDS_P2;PMS_P1;PMS_P2;Temp;Humidity;BMP_temperature;BMP_pressure;BME280_temperature;BME280_humidity;BME280_pressure;Samples;Min_cycle;Max_cycle;Signal;HPM_P1;HPM_P2
2022/12/29 00:02:19;;;;;;;5.65;5.15;;;4.50;99.90;;;;;;5048840;28;20473;-79
2022/12/29 00:04:50;;;;;;;5.45;4.95;;;4.50;99.90;;;;;;5068006;28;20227;-78
2022/12/29 00:07:18;;;;;;;4.72;4.32;;;4.50;99.90;;;;;;5064591;28;20664;-80
2022/12/29 00:09:46;;;;;;;5.63;5.13;;;4.50;99.90;;;;;;5064431;28;20218;-79
2022/12/29 00:12:13;;;;;;;5.18;4.72;;;4.50;99.90;;;;;;5067408;28;20216;-79
2022/12/29 00:17:25;;;;;;;5.20;4.80;;;4.40;99.90;;;;;;5068292;28;20232;-78
2022/12/29 00:36:40;;;;;;;4.68;4.25;;;4.40;99.90;;;;;;5070252;28;20221;-86
2022/12/29 00:44:40;;;;;;;4.72;4.30;;;4.40;99.90;;;;;;5064127;28;20323;-85
2022/12/29 00:47:08;;;;;;;4.68;4.28;;;4.40;99.90;;;;;;5072221;28;20194;-79
2022/12/29 00:49:34;;;;;;;5.22;4.82;;;4.40;99.90;;;;;;5065164;28;20218;-82
2022/12/29 00:52:08;;;;;;;5.00;4.60;;;4.40;99.90;;;;;;5066561;28;20187;-80
2022/12/29 00:54:38;;;;;;;4.07;3.78;;;4.40;99.90;;;;;;5062428;28;20237;-80
2022/12/29 00:57:08;;;;;;;4.50;4.20;;;4.40;99.90;;;;;;5063881;28;20204;-79
2022/12/29 00:59:36;;;;;;;4.35;3.95;;;4.40;99.90;;;;;;5066890;28;20218;-80
2022/12/29 01:02:04;;;;;;;4.47;4.18;;;4.40;99.90;;;;;;5065165;28;20283;-83
2022/12/29 01:04:31;;;;;;;4.60;4.20;;;4.50;99.90;;;;;;5064200;28;20232;-82
2022/12/29 01:06:59;;;;;;;5.18;4.22;;;4.50;99.90;;;;;;5066180;28;20209;-80
2022/12/29 01:12:13;;;;;;;4.53;4.13;;;4.40;99.90;;;;;;5066380;28;20202;-80
2022/12/29 01:14:42;;;;;;;4.85;4.53;;;4.30;99.90;;;;;;5063383;28;20225;-79
2022/12/29 01:17:10;;;;;;;4.57;4.20;;;4.30;99.90;;;;;;5066099;28;20195;-79
2022/12/29 01:19:38;;;;;;;4.00;3.70;;;4.20;99.90;;;;;;5068168;28;20225;-84
2022/12/29 01:22:05;;;;;;;4.43;4.03;;;4.20;99.90;;;;;;5064933;28;20641;-81
2022/12/29 01:24:34;;;;;;;4.20;3.90;;;4.20;99.90;;;;;;5047275;28;20726;-79
2022/12/29 01:27:02;;;;;;;4.63;4.32;;;4.10;99.90;;;;;;5046542;28;20277;-82
2022/12/29 01:29:29;;;;;;;4.18;3.88;;;4.20;99.90;;;;;;5066975;28;20226;-79
2022/12/29 01:31:56;;;;;;;4.28;3.97;;;4.10;99.90;;;;;;5068052;28;20194;-80
2022/12/29 01:34:24;;;;;;;4.68;4.28;;;4.20;99.90;;;;;;5048172;28;20267;-81
2022/12/29 01:36:51;;;;;;;4.28;3.97;;;4.10;99.90;;;;;;5069118;28;20205;-81
2022/12/29 01:39:18;;;;;;;4.13;3.83;;;4.10;99.90;;;;;;5068339;28;20222;-82
2022/12/29 01:41:47;;;;;;;4.10;3.80;;;4.10;99.90;;;;;;5064536;28;20218;-79
2022/12/29 01:44:48;;;;;;;4.80;4.50;;;4.10;99.90;;;;;;5053472;28;20242;-80
2022/12/29 01:47:20;;;;;;;4.50;4.20;;;4.00;99.90;;;;;;5067453;28;20206;-80
2022/12/29 01:49:47;;;;;;;4.90;4.50;;;4.00;99.90;;;;;;5065724;28;20215;-82
2022/12/29 01:52:14;;;;;;;4.25;3.85;;;3.90;99.90;;;;;;5068786;28;20190;-80
2022/12/29 01:54:51;;;;;;;4.72;4.32;;;3.90;99.90;;;;;;5066727;28;20226;-84
2022/12/29 01:57:24;;;;;;;5.13;4.72;;;3.80;99.90;;;;;;5063366;28;20417;-81
2022/12/29 01:59:56;;;;;;;4.50;4.20;;;3.80;99.90;;;;;;5067934;28;20267;-79
2022/12/29 02:02:23;;;;;;;4.30;4.00;;;3.70;99.90;;;;;;5068353;28;20347;-81
2022/12/29 02:04:52;;;;;;;3.58;3.38;;;3.70;99.90;;;;;;5061994;28;20922;-78
2022/12/29 02:07:25;;;;;;;3.95;3.65;;;3.70;99.90;;;;;;5074171;28;20256;-81
2022/12/29 02:09:56;;;;;;;3.78;3.58;;;3.70;99.90;;;;;;5075368;28;20283;-80
2022/12/29 02:12:26;;;;;;;3.85;3.55;;;3.70;99.90;;;;;;5075663;28;20696;-81
2022/12/29 02:14:56;;;;;;;3.70;3.40;;;3.70;99.90;;;;;;5073357;28;20230;-80
2022/12/29 02:17:43;;;;;;;3.65;3.45;;;3.70;99.90;;;;;;5068093;28;20198;-80
2022/12/29 02:20:57;;;;;;;3.67;3.47;;;3.60;99.90;;;;;;5071273;28;20252;-81
2022/12/29 02:23:47;;;;;;;3.60;3.40;;;3.60;99.90;;;;;;5069865;28;20283;-80
2022/12/29 02:26:51;;;;;;;3.95;3.65;;;3.60;99.90;;;;;;5067377;28;20190;-77
2022/12/29 02:29:49;;;;;;;3.88;3.65;;;3.50;99.90;;;;;;5035053;28;20222;-78
2022/12/29 02:32:30;;;;;;;3.95;3.70;;;3.50;99.90;;;;;;5051196;28;20551;-78
2022/12/29 02:35:06;;;;;;;3.83;3.60;;;3.50;99.90;;;;;;5075902;28;20245;-82
2022/12/29 02:37:41;;;;;;;4.30;4.00;;;3.50;99.90;;;;;;5080952;28;20604;-81
2022/12/29 02:40:18;;;;;;;4.30;4.00;;;3.50;99.90;;;;;;5056261;28;20221;-81
2022/12/29 02:42:54;;;;;;;4.50;4.20;;;3.50;99.90;;;;;;5074316;28;20218;-78
2022/12/29 02:45:27;;;;;;;3.97;3.78;;;3.50;99.90;;;;;;5072918;28;20599;-79
2022/12/29 02:48:04;;;;;;;3.95;3.70;;;3.50;99.90;;;;;;5072320;28;20198;-82
2022/12/29 02:50:37;;;;;;;3.70;3.40;;;3.50;99.90;;;;;;5075000;28;20574;-82
2022/12/29 02:53:09;;;;;;;3.70;3.50;;;3.50;99.90;;;;;;5055479;28;20684;-79
2022/12/29 02:55:35;;;;;;;3.85;3.55;;;3.40;99.90;;;;;;5061541;28;20218;-79
2022/12/29 02:58:17;;;;;;;4.07;3.78;;;3.50;99.90;;;;;;5073391;28;20186;-78
2022/12/29 03:00:57;;;;;;;4.05;3.75;;;3.40;99.90;;;;;;5068575;28;20397;-78
2022/12/29 03:03:39;;;;;;;3.83;3.58;;;3.40;99.90;;;;;;5073439;28;20253;-78
2022/12/29 03:06:23;;;;;;;3.70;3.50;;;3.40;99.90;;;;;;5076963;28;20194;-78
2022/12/29 03:08:57;;;;;;;4.05;3.83;;;3.40;99.90;;;;;;5074127;28;20237;-81
2022/12/29 03:17:11;;;;;;;4.82;4.53;;;3.30;99.90;;;;;;5072133;28;20285;-85
2022/12/29 03:19:47;;;;;;;4.15;3.85;;;3.30;99.90;;;;;;5073525;28;20245;-79
2022/12/29 03:22:31;;;;;;;4.53;4.22;;;3.20;99.90;;;;;;5075173;28;20249;-81
2022/12/29 03:25:04;;;;;;;4.03;3.72;;;3.20;99.90;;;;;;5072037;28;20218;-80
2022/12/29 03:27:36;;;;;;;4.63;4.32;;;3.10;99.90;;;;;;5073144;28;20201;-80
2022/12/29 03:30:06;;;;;;;4.05;3.75;;;3.20;99.90;;;;;;5073905;28;20229;-81
2022/12/29 03:32:39;;;;;;;3.90;3.60;;;3.20;99.90;;;;;;5057247;28;20287;-81
2022/12/29 03:35:12;;;;;;;3.60;3.40;;;3.20;99.90;;;;;;5069061;28;20223;-81
2022/12/29 03:37:42;;;;;;;3.97;3.67;;;3.20;99.90;;;;;;5073818;28;20225;-81
2022/12/29 03:40:10;;;;;;;4.00;3.80;;;3.20;99.90;;;;;;5057983;28;20238;-80
2022/12/29 03:42:39;;;;;;;3.45;3.25;;;3.30;99.90;;;;;;5039606;28;20313;-78
2022/12/29 03:45:11;;;;;;;4.50;4.20;;;3.30;99.90;;;;;;5072950;28;20222;-79
2022/12/29 03:47:38;;;;;;;3.95;3.75;;;3.20;99.90;;;;;;5073935;28;20223;-80
2022/12/29 03:50:09;;;;;;;4.20;3.90;;;3.20;99.90;;;;;;5056187;28;20218;-78
2022/12/29 03:52:37;;;;;;;3.97;3.75;;;3.20;99.90;;;;;;5050676;28;20214;-82
2022/12/29 03:55:07;;;;;;;3.88;3.58;;;3.30;99.90;;;;;;5072501;28;20218;-82
2022/12/29 03:57:34;;;;;;;4.10;3.90;;;3.30;99.90;;;;;;5074850;28;20628;-80
2022/12/29 04:00:02;;;;;;;3.55;3.35;;;3.30;99.90;;;;;;5066241;28;20215;-83
2022/12/29 04:02:30;;;;;;;4.05;3.75;;;3.30;99.90;;;;;;5077168;28;20305;-79
2022/12/29 04:04:57;;;;;;;4.82;4.43;;;3.30;99.90;;;;;;5071103;28;20225;-81
2022/12/29 04:07:26;;;;;;;4.32;3.95;;;3.30;99.90;;;;;;5078463;28;20198;-79
2022/12/29 04:09:54;;;;;;;4.40;4.00;;;3.30;99.90;;;;;;5058826;28;20218;-83
2022/12/29 04:12:21;;;;;;;4.82;4.43;;;3.30;99.90;;;;;;5074740;28;20236;-79
2022/12/29 04:14:50;;;;;;;4.32;4.03;;;3.30;99.90;;;;;;5051125;28;20221;-83
2022/12/29 04:17:17;;;;;;;3.58;3.38;;;3.30;99.90;;;;;;5066068;28;20653;-80
2022/12/29 04:19:45;;;;;;;3.90;3.67;;;3.30;99.90;;;;;;5070433;28;20221;-80
2022/12/29 04:22:12;;;;;;;3.97;3.78;;;3.20;99.90;;;;;;5034524;28;20463;-78
2022/12/29 04:24:42;;;;;;;3.70;3.50;;;3.20;99.90;;;;;;5068409;28;20237;-79
2022/12/29 04:27:11;;;;;;;4.38;4.07;;;3.20;99.90;;;;;;5070419;28;20199;-80
2022/12/29 04:29:41;;;;;;;3.53;3.30;;;3.20;99.90;;;;;;5071220;28;20218;-81
2022/12/29 04:32:10;;;;;;;3.60;3.40;;;3.20;99.90;;;;;;5070268;28;20279;-80
2022/12/29 04:34:38;;;;;;;3.67;3.42;;;3.20;99.90;;;;;;5072877;28;20222;-80
2022/12/29 04:37:05;;;;;;;4.10;3.80;;;3.20;99.90;;;;;;5070314;28;20202;-81
2022/12/29 04:39:33;;;;;;;3.92;3.72;;;3.20;99.90;;;;;;5070551;28;20217;-78
2022/12/29 04:42:02;;;;;;;3.67;3.47;;;3.20;99.90;;;;;;5052811;28;20245;-79
2022/12/29 04:44:29;;;;;;;3.92;3.63;;;3.20;99.90;;;;;;5071905;28;20249;-79
2022/12/29 04:46:57;;;;;;;3.72;3.42;;;3.20;99.90;;;;;;5076435;28;20198;-84
2022/12/29 04:49:24;;;;;;;3.90;3.70;;;3.20;99.90;;;;;;5073262;28;20253;-78
2022/12/29 04:51:52;;;;;;;4.25;3.95;;;3.20;99.90;;;;;;5053848;28;20202;-81
2022/12/29 04:54:19;;;;;;;4.32;4.03;;;3.20;99.90;;;;;;5052925;28;20274;-80
2022/12/29 04:56:47;;;;;;;3.80;3.60;;;3.20;99.90;;;;;;5072074;28;20195;-83
2022/12/29 04:59:16;;;;;;;3.78;3.58;;;3.10;99.90;;;;;;5075163;28;20214;-83
2022/12/29 05:01:43;;;;;;;3.50;3.30;;;3.10;99.90;;;;;;5072233;28;20190;-84
2022/12/29 05:04:10;;;;;;;4.30;4.00;;;3.10;99.90;;;;;;5069628;28;20225;-80
2022/12/29 05:06:38;;;;;;;3.88;3.65;;;3.00;99.90;;;;;;5077582;28;20199;-85
2022/12/29 05:09:05;;;;;;;3.78;3.58;;;3.00;99.90;;;;;;5056981;28;20256;-79
2022/12/29 05:11:33;;;;;;;4.88;4.57;;;3.00;99.90;;;;;;5052574;28;20206;-80
2022/12/29 05:14:00;;;;;;;3.55;3.35;;;3.00;99.90;;;;;;5072289;28;20225;-79
2022/12/29 05:16:29;;;;;;;4.03;3.83;;;2.90;99.90;;;;;;5072516;28;20197;-82
2022/12/29 05:18:57;;;;;;;4.40;4.07;;;2.90;99.90;;;;;;5071428;28;20264;-78
2022/12/29 05:21:25;;;;;;;3.80;3.53;;;2.90;99.90;;;;;;5073938;28;20195;-79
2022/12/29 05:23:52;;;;;;;3.95;3.75;;;2.90;99.90;;;;;;5074403;28;20221;-82
2022/12/29 05:26:20;;;;;;;3.92;3.63;;;2.90;99.90;;;;;;5072704;28;20214;-81
2022/12/29 05:28:47;;;;;;;3.50;3.28;;;2.90;99.90;;;;;;5074615;28;20219;-82
2022/12/29 05:31:15;;;;;;;3.80;3.60;;;2.90;99.90;;;;;;5070336;28;20195;-81
2022/12/29 05:33:44;;;;;;;3.47;3.28;;;2.90;99.90;;;;;;5048246;28;20222;-80
2022/12/29 05:36:12;;;;;;;4.30;4.00;;;2.90;99.90;;;;;;5067548;28;20199;-82
2022/12/29 05:38:40;;;;;;;3.65;3.45;;;2.90;99.90;;;;;;5067750;28;20218;-80
2022/12/29 05:41:08;;;;;;;3.83;3.53;;;2.90;99.90;;;;;;5068337;28;20205;-80
2022/12/29 05:43:36;;;;;;;3.88;3.58;;;2.90;99.90;;;;;;5073635;28;20261;-80
2022/12/29 05:46:05;;;;;;;3.80;3.60;;;2.90;99.90;;;;;;5073502;28;20199;-82
2022/12/29 05:48:32;;;;;;;3.90;3.63;;;2.90;99.90;;;;;;5073151;28;20202;-83
2022/12/29 05:51:02;;;;;;;3.72;3.53;;;2.90;99.90;;;;;;5069304;28;20194;-81
2022/12/29 05:53:30;;;;;;;3.72;3.53;;;2.90;99.90;;;;;;5069270;28;20214;-82
2022/12/29 05:55:57;;;;;;;4.05;3.75;;;2.90;99.90;;;;;;5067745;28;20194;-85
2022/12/29 05:58:25;;;;;;;3.67;3.47;;;2.90;99.90;;;;;;5056710;28;20194;-82
2022/12/29 06:00:52;;;;;;;3.80;3.60;;;2.90;99.90;;;;;;5070003;28;20191;-80
2022/12/29 06:03:20;;;;;;;3.33;3.13;;;2.90;99.90;;;;;;5057024;28;20234;-81
2022/12/29 06:05:48;;;;;;;3.97;3.67;;;2.80;99.90;;;;;;5072551;28;20205;-83
2022/12/29 06:08:17;;;;;;;3.72;3.45;;;2.80;99.90;;;;;;5077773;28;20190;-80
2022/12/29 06:10:44;;;;;;;3.85;3.65;;;2.80;99.90;;;;;;5076772;28;20222;-82
2022/12/29 06:13:11;;;;;;;3.97;3.67;;;2.80;99.90;;;;;;5076577;28;20228;-80
2022/12/29 06:15:39;;;;;;;4.55;4.20;;;2.80;99.90;;;;;;5068305;28;20218;-79
2022/12/29 06:18:06;;;;;;;4.38;4.07;;;2.80;99.90;;;;;;5068105;28;20564;-78
2022/12/29 06:20:34;;;;;;;4.15;3.85;;;2.80;99.90;;;;;;5065541;28;20225;-78
2022/12/29 06:23:01;;;;;;;3.65;3.45;;;2.80;99.90;;;;;;5068754;28;20229;-80
2022/12/29 06:25:32;;;;;;;4.15;3.95;;;2.80;99.90;;;;;;5048445;28;20218;-79
2022/12/29 06:27:59;;;;;;;3.83;3.63;;;2.70;99.90;;;;;;5065482;28;20244;-79
2022/12/29 06:30:27;;;;;;;4.18;3.90;;;2.70;99.90;;;;;;5065787;28;20218;-78
2022/12/29 06:32:55;;;;;;;3.90;3.67;;;2.70;99.90;;;;;;5047268;28;20228;-78
2022/12/29 06:35:23;;;;;;;4.25;3.95;;;2.70;99.90;;;;;;5069939;28;20272;-78
2022/12/29 06:37:50;;;;;;;4.45;4.13;;;2.70;99.90;;;;;;5056129;28;20187;-81
2022/12/29 06:40:18;;;;;;;5.75;5.28;;;2.70;99.90;;;;;;5069946;28;20218;-82
2022/12/29 06:42:46;;;;;;;4.00;3.80;;;2.70;99.90;;;;;;5068477;28;20707;-82
2022/12/29 06:45:14;;;;;;;4.43;4.13;;;2.70;99.90;;;;;;5070933;28;20230;-78
2022/12/29 06:47:41;;;;;;;3.83;3.55;;;2.70;99.90;;;;;;5067133;28;20210;-81
2022/12/29 06:50:11;;;;;;;4.18;3.88;;;2.70;99.90;;;;;;5057706;28;20279;-80
2022/12/29 06:52:38;;;;;;;4.53;4.22;;;2.60;99.90;;;;;;5053213;28;20195;-80
2022/12/29 06:55:06;;;;;;;4.78;4.32;;;2.60;99.90;;;;;;5077455;28;20225;-78
2022/12/29 06:57:33;;;;;;;4.45;4.15;;;2.60;99.90;;;;;;5073241;28;20205;-78
2022/12/29 07:00:05;;;;;;;4.50;4.20;;;2.60;99.90;;;;;;5069918;28;20236;-79
2022/12/29 07:02:32;;;;;;;4.78;4.47;;;2.60;99.90;;;;;;5066493;28;20206;-84
2022/12/29 07:05:00;;;;;;;3.67;3.38;;;2.60;99.90;;;;;;5050393;28;20218;-79
2022/12/29 07:07:27;;;;;;;4.40;4.10;;;2.60;99.90;;;;;;5073554;28;20194;-80
2022/12/29 07:09:57;;;;;;;4.57;4.18;;;2.60;99.90;;;;;;5069142;28;20222;-79
2022/12/29 07:12:24;;;;;;;5.25;4.82;;;2.60;99.90;;;;;;5052748;28;20199;-81
2022/12/29 07:14:51;;;;;;;4.50;4.20;;;2.60;99.90;;;;;;5054022;28;20225;-80
2022/12/29 07:17:20;;;;;;;4.75;4.45;;;2.60;99.90;;;;;;5073918;28;20202;-78
2022/12/29 07:19:48;;;;;;;4.60;4.30;;;2.60;99.90;;;;;;5065525;28;20293;-82
2022/12/29 07:22:15;;;;;;;5.30;4.90;;;2.60;99.90;;;;;;5051385;28;20215;-81
2022/12/29 07:24:43;;;;;;;5.40;4.90;;;2.60;99.90;;;;;;5064829;28;20218;-82
2022/12/29 07:27:11;;;;;;;4.95;4.53;;;2.60;99.90;;;;;;5049193;28;20190;-80
2022/12/29 07:29:39;;;;;;;5.45;5.05;;;2.60;99.90;;;;;;5060273;28;20675;-82
2022/12/29 07:32:09;;;;;;;5.25;4.85;;;2.60;99.90;;;;;;5062576;28;20253;-79
2022/12/29 07:34:39;;;;;;;5.32;4.93;;;2.60;99.90;;;;;;5061997;28;20710;-78
2022/12/29 07:37:07;;;;;;;4.75;4.45;;;2.60;99.90;;;;;;5068212;28;20718;-79
2022/12/29 07:39:34;;;;;;;5.13;4.72;;;2.60;99.90;;;;;;5064051;28;20279;-80
2022/12/29 07:42:01;;;;;;;5.45;5.03;;;2.60;99.90;;;;;;5050337;28;20206;-78
2022/12/29 07:44:29;;;;;;;5.15;4.65;;;2.60;99.90;;;;;;5044777;28;20240;-80
2022/12/29 07:46:57;;;;;;;5.07;4.78;;;2.60;99.90;;;;;;5062205;28;20644;-78
2022/12/29 07:49:24;;;;;;;5.10;4.70;;;2.70;99.90;;;;;;5049189;28;20225;-79
2022/12/29 07:51:53;;;;;;;5.45;5.05;;;2.70;99.90;;;;;;5068063;28;20217;-80
2022/12/29 07:54:22;;;;;;;4.43;4.03;;;2.70;99.90;;;;;;5061103;28;20920;-78
2022/12/29 07:56:49;;;;;;;4.57;4.28;;;2.70;99.90;;;;;;5062431;28;20199;-82
2022/12/29 07:59:17;;;;;;;4.65;4.35;;;2.70;99.90;;;;;;5062218;28;20589;-82
2022/12/29 08:01:44;;;;;;;4.63;4.32;;;2.70;99.90;;;;;;5044664;28;20206;-83
2022/12/29 08:04:12;;;;;;;4.63;4.20;;;2.70;99.90;;;;;;5064909;28;20663;-80
2022/12/29 08:06:39;;;;;;;5.53;5.13;;;2.80;99.90;;;;;;5064795;28;20198;-80
2022/12/29 08:09:09;;;;;;;4.75;4.45;;;2.80;99.90;;;;;;5066296;28;20217;-80
2022/12/29 08:11:36;;;;;;;5.55;5.15;;;2.80;99.90;;;;;;5062582;28;20207;-79
2022/12/29 08:14:04;;;;;;;5.53;5.10;;;2.90;99.90;;;;;;5046153;28;20226;-79
2022/12/29 08:16:32;;;;;;;4.68;4.38;;;2.90;99.90;;;;;;5024421;28;20454;-79
2022/12/29 08:18:59;;;;;;;4.88;4.57;;;3.00;99.90;;;;;;5046628;28;20215;-78
2022/12/29 08:21:28;;;;;;;4.60;4.28;;;3.00;99.90;;;;;;5059737;28;20281;-78
2022/12/29 08:23:55;;;;;;;4.82;4.53;;;3.10;99.90;;;;;;5061603;28;20257;-81
2022/12/29 08:26:24;;;;;;;5.32;4.93;;;3.20;99.90;;;;;;5059481;28;20622;-78
2022/12/29 08:28:54;;;;;;;5.57;5.10;;;3.20;99.90;;;;;;5061750;28;20218;-80
2022/12/29 08:31:21;;;;;;;5.18;4.78;;;3.30;99.90;;;;;;5051583;28;20194;-81
2022/12/29 08:33:49;;;;;;;5.70;5.30;;;3.40;99.90;;;;;;5063843;28;20219;-78
2022/12/29 08:36:16;;;;;;;6.72;6.15;;;3.40;99.90;;;;;;5031187;28;20846;-80
2022/12/29 08:38:44;;;;;;;6.70;6.10;;;3.50;99.90;;;;;;5064090;28;20263;-83
2022/12/29 08:41:11;;;;;;;6.88;6.28;;;3.50;99.90;;;;;;5062468;28;20194;-83
2022/12/29 08:43:40;;;;;;;7.50;6.80;;;3.40;99.90;;;;;;5043590;28;20222;-80
2022/12/29 08:46:08;;;;;;;6.25;5.78;;;3.50;99.90;;;;;;5062613;28;20202;-79
2022/12/29 08:48:35;;;;;;;6.78;6.25;;;3.50;99.90;;;;;;5062322;28;20234;-79
2022/12/29 08:51:03;;;;;;;6.22;5.72;;;3.70;99.90;;;;;;5058684;28;20198;-79
2022/12/29 08:53:32;;;;;;;6.25;5.75;;;3.80;99.90;;;;;;5061948;28;20725;-79
2022/12/29 08:56:01;;;;;;;6.55;6.05;;;3.80;99.90;;;;;;5036227;28;20216;-81
2022/12/29 08:58:29;;;;;;;6.40;5.88;;;3.90;99.90;;;;;;5064957;28;20402;-85
2022/12/29 09:00:59;;;;;;;6.18;5.60;;;4.00;99.90;;;;;;5061867;28;20917;-79
2022/12/29 09:03:27;;;;;;;6.78;6.10;;;4.00;99.90;;;;;;5065349;28;20684;-81
2022/12/29 09:05:57;;;;;;;5.80;5.30;;;4.10;99.90;;;;;;5066334;28;20198;-78
2022/12/29 09:08:25;;;;;;;6.78;6.28;;;4.00;99.90;;;;;;5064278;28;20252;-76
2022/12/29 09:10:52;;;;;;;6.50;5.90;;;4.00;99.90;;;;;;5063886;28;20205;-80
2022/12/29 09:13:20;;;;;;;6.63;6.07;;;4.00;99.90;;;;;;5057182;28;20229;-78
2022/12/29 09:15:47;;;;;;;6.60;6.10;;;4.00;99.90;;;;;;5060297;28;20293;-77
2022/12/29 09:18:16;;;;;;;6.68;6.18;;;4.10;99.90;;;;;;5061065;28;20198;-82
2022/12/29 09:20:44;;;;;;;6.85;6.25;;;4.10;99.90;;;;;;5039130;28;20230;-79
2022/12/29 09:23:11;;;;;;;7.55;6.85;;;4.20;99.90;;;;;;5072477;28;20229;-83
2022/12/29 09:25:38;;;;;;;6.78;6.18;;;4.10;99.90;;;;;;5071150;28;20795;-82
2022/12/29 09:28:07;;;;;;;7.03;6.43;;;3.90;99.90;;;;;;5076707;28;20281;-80
2022/12/29 09:30:36;;;;;;;6.50;5.90;;;3.90;99.90;;;;;;5059596;28;20245;-78
2022/12/29 09:33:04;;;;;;;7.57;6.88;;;3.90;99.90;;;;;;5066849;28;20207;-79
2022/12/29 09:35:33;;;;;;;6.88;6.28;;;3.90;99.90;;;;;;5073311;28;20228;-78
2022/12/29 09:38:01;;;;;;;7.03;6.43;;;4.10;99.90;;;;;;5071632;28;20191;-79
2022/12/29 09:40:31;;;;;;;6.50;5.90;;;4.20;99.90;;;;;;5055674;28;20214;-78
2022/12/29 09:43:21;;;;;;;7.30;6.60;;;4.30;99.90;;;;;;5069684;28;20203;-81
2022/12/29 09:45:55;;;;;;;7.32;6.68;;;4.40;99.90;;;;;;5073071;28;20210;-79
2022/12/29 09:48:27;;;;;;;6.45;5.95;;;4.50;99.90;;;;;;5052644;28;20571;-78
2022/12/29 09:50:59;;;;;;;8.02;7.22;;;4.70;99.90;;;;;;5053857;28;20206;-81
2022/12/29 09:53:31;;;;;;;9.73;8.73;;;4.70;99.90;;;;;;5073599;28;20222;-79
2022/12/29 09:56:01;;;;;;;9.30;7.55;;;4.80;99.90;;;;;;5074461;28;20201;-80
2022/12/29 09:58:36;;;;;;;9.20;8.10;;;4.80;99.90;;;;;;5067996;28;20690;-79
2022/12/29 10:01:07;;;;;;;8.60;7.80;;;4.90;99.90;;;;;;5053625;28;20201;-80
2022/12/29 10:03:47;;;;;;;10.85;9.07;;;5.00;99.90;;;;;;5049053;28;20214;-81
2022/12/29 10:06:23;;;;;;;9.65;8.50;;;5.00;99.90;;;;;;5045402;28;20237;-79
2022/12/29 10:08:58;;;;;;;11.10;9.35;;;5.00;99.90;;;;;;5071031;28;20245;-81
2022/12/29 10:11:36;;;;;;;9.07;8.27;;;5.00;99.90;;;;;;5064564;28;20522;-79
2022/12/29 10:14:18;;;;;;;9.40;8.48;;;5.10;99.90;;;;;;5066712;28;20222;-80
2022/12/29 10:16:56;;;;;;;9.80;8.80;;;5.20;99.90;;;;;;5045865;28;20530;-79
2022/12/29 10:19:37;;;;;;;8.88;8.05;;;5.20;99.90;;;;;;5062647;28;20699;-79
2022/12/29 10:22:20;;;;;;;7.95;7.25;;;5.30;99.90;;;;;;5072521;28;20182;-79
2022/12/29 10:24:50;;;;;;;8.68;7.78;;;5.40;99.90;;;;;;5063171;28;20246;-78
2022/12/29 10:27:19;;;;;;;8.50;7.70;;;5.40;99.90;;;;;;5049457;28;20198;-79
2022/12/29 10:29:50;;;;;;;8.48;7.78;;;5.50;99.90;;;;;;5063194;28;20226;-79
2022/12/29 10:32:28;;;;;;;7.72;6.95;;;5.50;99.90;;;;;;5069839;28;20211;-78
2022/12/29 10:34:59;;;;;;;8.57;7.78;;;5.60;99.90;;;;;;5062972;28;20221;-78
2022/12/29 10:37:35;;;;;;;8.10;7.40;;;5.60;99.90;;;;;;5044405;28;20684;-79
2022/12/29 10:40:19;;;;;;;9.05;7.82;;;5.70;99.90;;;;;;5047506;28;20642;-78
2022/12/29 10:42:54;;;;;;;9.18;8.30;;;5.70;99.90;;;;;;5047133;28;20198;-79
2022/12/29 10:45:26;;;;;;;9.98;9.02;;;5.60;99.90;;;;;;5066874;28;20213;-81
2022/12/29 10:48:06;;;;;;;9.65;8.75;;;5.60;99.90;;;;;;5068377;28;20612;-78
2022/12/29 10:50:34;;;;;;;8.40;7.53;;;5.60;99.90;;;;;;5068858;28;20218;-80
2022/12/29 10:53:08;;;;;;;6.88;6.20;;;5.50;99.90;;;;;;5064100;28;20566;-79
2022/12/29 10:55:40;;;;;;;7.47;6.78;;;5.50;99.90;;;;;;5042976;28;20302;-82
2022/12/29 10:58:15;;;;;;;6.53;5.95;;;5.50;99.90;;;;;;5065187;28;20825;-79
2022/12/29 11:00:50;;;;;;;7.70;6.90;;;5.60;99.90;;;;;;5060683;28;20241;-78
2022/12/29 11:03:58;;;;;;;7.13;6.53;;;5.70;99.90;;;;;;5046228;28;20272;-82
2022/12/29 11:06:28;;;;;;;7.57;6.97;;;5.90;99.90;;;;;;5061551;28;20197;-79
2022/12/29 11:09:01;;;;;;;7.80;7.03;;;6.10;99.90;;;;;;5061973;28;20697;-80
2022/12/29 11:11:36;;;;;;;8.68;7.72;;;6.20;99.90;;;;;;5050784;28;20198;-80
2022/12/29 11:14:14;;;;;;;9.00;8.20;;;6.40;99.90;;;;;;5040068;28;20225;-79
2022/12/29 11:16:44;;;;;;;8.55;7.75;;;6.40;99.90;;;;;;5045433;28;20205;-78
2022/12/29 11:19:23;;;;;;;8.07;7.28;;;6.50;99.90;;;;;;5061885;28;20222;-79
2022/12/29 11:21:50;;;;;;;7.78;7.07;;;6.60;99.90;;;;;;5060082;28;20459;-77
2022/12/29 11:24:26;;;;;;;9.02;8.15;;;6.80;99.90;;;;;;5063004;28;20256;-78
2022/12/29 11:26:57;;;;;;;8.15;7.32;;;7.30;99.90;;;;;;5066685;28;20209;-79
2022/12/29 11:29:38;;;;;;;8.90;7.80;;;8.10;99.90;;;;;;5071435;28;20599;-79
2022/12/29 11:32:14;;;;;;;8.80;7.93;;;8.80;99.90;;;;;;5045283;28;20660;-78
2022/12/29 11:34:41;;;;;;;11.15;8.40;;;9.30;99.90;;;;;;5045306;28;20244;-79
2022/12/29 11:37:14;;;;;;;9.00;8.10;;;9.30;99.90;;;;;;5073819;28;20286;-78
2022/12/29 11:39:49;;;;;;;9.30;8.40;;;9.60;99.90;;;;;;5060854;28;20308;-77
2022/12/29 11:42:19;;;;;;;9.13;8.23;;;9.90;99.90;;;;;;5064876;28;20194;-78
2022/12/29 11:44:49;;;;;;;9.73;8.77;;;10.20;99.90;;;;;;5060890;28;20229;-78
2022/12/29 11:47:26;;;;;;;9.10;8.10;;;10.30;99.90;;;;;;5059911;28;20194;-78
2022/12/29 11:49:57;;;;;;;10.82;8.85;;;10.40;99.90;;;;;;5043656;28;20299;-78
2022/12/29 11:52:27;;;;;;;9.25;8.25;;;10.60;99.90;;;;;;5062640;28;20199;-78
2022/12/29 11:54:59;;;;;;;8.52;7.68;;;10.40;99.90;;;;;;5067110;28;20217;-80
2022/12/29 11:57:27;;;;;;;10.55;6.93;;;10.40;99.90;;;;;;5043397;28;20663;-78
2022/12/29 11:59:55;;;;;;;8.73;7.72;;;10.40;99.90;;;;;;5060411;28;20219;-78
2022/12/29 12:02:47;;;;;;;8.05;7.25;;;10.40;99.90;;;;;;5061020;28;20221;-78
2022/12/29 12:05:27;;;;;;;8.13;7.32;;;10.30;99.90;;;;;;5059263;28;20647;-78
2022/12/29 12:08:00;;;;;;;7.85;7.15;;;10.30;99.90;;;;;;5045695;28;20237;-77
2022/12/29 12:10:38;;;;;;;7.72;6.95;;;10.20;99.90;;;;;;5063924;28;20217;-77
2022/12/29 12:13:18;;;;;;;8.38;7.47;;;10.20;99.90;;;;;;5048889;28;20264;-78
2022/12/29 12:15:53;;;;;;;7.95;7.15;;;10.30;99.90;;;;;;5071921;28;20309;-77
2022/12/29 12:18:32;;;;;;;8.10;7.22;;;10.50;99.90;;;;;;5063899;28;20202;-78
2022/12/29 12:21:06;;;;;;;8.40;7.05;;;10.40;99.90;;;;;;5055655;28;20944;-81
2022/12/29 12:23:43;;;;;;;7.70;6.90;;;10.40;99.90;;;;;;5067979;28;20318;-81
2022/12/29 12:26:16;;;;;;;7.25;6.55;;;10.50;99.90;;;;;;5066802;28;20216;-79
2022/12/29 12:28:51;;;;;;;6.88;6.28;;;10.40;99.90;;;;;;5062361;28;20865;-77
2022/12/29 12:31:29;;;;;;;7.40;6.60;;;10.20;99.90;;;;;;5065631;28;20202;-78
2022/12/29 12:34:03;;;;;;;7.68;6.63;;;10.20;99.90;;;;;;5059401;28;20233;-82
2022/12/29 12:37:03;;;;;;;7.45;6.65;;;10.20;99.90;;;;;;5048078;28;20205;-80
2022/12/29 12:39:43;;;;;;;7.75;7.05;;;10.00;99.90;;;;;;5065665;28;20218;-79
2022/12/29 12:42:28;;;;;;;7.80;7.10;;;9.70;99.90;;;;;;5065712;28;20198;-77
2022/12/29 12:45:23;;;;;;;7.43;6.65;;;9.30;99.90;;;;;;5067818;28;20722;-79
2022/12/29 12:48:05;;;;;;;7.90;6.35;;;8.90;99.90;;;;;;5063715;28;20198;-80
2022/12/29 12:50:54;;;;;;;8.30;6.68;;;8.90;99.90;;;;;;5050457;28;20283;-77
2022/12/29 12:53:40;;;;;;;7.80;7.00;;;9.00;99.90;;;;;;5063080;28;20249;-79
2022/12/29 12:56:35;;;;;;;8.43;6.95;;;9.00;99.90;;;;;;5062286;28;20198;-77
2022/12/29 12:59:17;;;;;;;6.60;5.93;;;8.90;99.90;;;;;;5061565;28;20227;-75
2022/12/29 13:01:58;;;;;;;7.47;6.78;;;8.90;99.90;;;;;;5050517;28;20835;-75
2022/12/29 13:04:54;;;;;;;7.35;6.55;;;9.00;99.90;;;;;;5064411;28;20295;-78
2022/12/29 13:07:34;;;;;;;7.97;7.18;;;9.00;99.90;;;;;;5044746;28;20202;-83
2022/12/29 13:10:29;;;;;;;11.60;7.20;;;9.20;99.90;;;;;;5063018;28;20214;-77
2022/12/29 13:16:05;;;;;;;10.05;8.45;;;9.50;99.90;;;;;;5059275;28;20675;-78
2022/12/29 13:18:41;;;;;;;9.77;8.57;;;9.50;99.90;;;;;;5064941;28;20194;-77
2022/12/29 13:21:14;;;;;;;9.80;7.03;;;9.50;99.90;;;;;;5044050;28;20197;-77
2022/12/29 13:23:52;;;;;;;6.55;5.93;;;9.30;99.90;;;;;;5059984;28;20214;-77
2022/12/29 13:26:25;;;;;;;6.85;6.28;;;9.20;99.90;;;;;;5044574;28;20222;-77
2022/12/29 13:29:01;;;;;;;5.93;5.43;;;9.10;99.90;;;;;;5064567;28;20778;-79
2022/12/29 13:31:40;;;;;;;8.13;5.93;;;9.20;99.90;;;;;;5059268;28;20205;-78
2022/12/29 13:34:19;;;;;;;8.20;5.97;;;9.20;99.90;;;;;;5063675;28;20232;-78
2022/12/29 13:36:50;;;;;;;7.15;6.40;;;9.10;99.90;;;;;;5063829;28;20201;-77
2022/12/29 13:39:21;;;;;;;7.63;6.28;;;9.10;99.90;;;;;;5063438;28;20301;-78
2022/12/29 13:41:52;;;;;;;6.20;5.60;;;9.20;99.90;;;;;;5061353;28;20206;-78
2022/12/29 13:44:24;;;;;;;6.65;6.05;;;9.30;99.90;;;;;;5059521;28;20238;-78
2022/12/29 13:46:57;;;;;;;6.47;5.88;;;9.40;99.90;;;;;;5061254;28;20301;-77
2022/12/29 13:49:26;;;;;;;5.88;5.28;;;9.30;99.90;;;;;;5044230;28;20214;-77
2022/12/29 13:51:56;;;;;;;6.20;5.70;;;9.10;99.90;;;;;;5045190;28;20255;-79
2022/12/29 13:54:38;;;;;;;5.93;5.40;;;9.00;99.90;;;;;;5065445;28;20222;-81
2022/12/29 13:57:19;;;;;;;6.25;5.65;;;8.90;99.90;;;;;;5062611;28;20209;-79